Time,TemperatureF,DewpointF,PressureIn,WindDirection,WindDirectionDegrees,WindSpeedMPH,WindSpeedGustMPH,Humidity,HourlyPrecipIn,Conditions,Clouds,dailyrainin,SoftwareType,DateUTC
2013-12-08 00:00:00,26.6,24.9,18.33,ENE,63,0.0,0.0,93,0.00,,SKC,0.00,VWS V14.01,2013-12-08 06:00:00,
2013-12-08 00:03:00,26.2,24.5,18.33,ENE,63,0.0,0.0,93,0.00,,SKC,0.00,VWS V14.01,2013-12-08 06:03:00,
2013-12-08 00:09:00,26.2,24.5,18.33,ENE,63,0.0,0.0,93,0.00,,SKC,0.00,VWS V14.01,2013-12-08 06:09:00,
2013-12-08 00:15:00,26.2,24.5,18.33,ENE,63,0.0,0.0,93,0.00,,SKC,0.00,VWS V14.01,2013-12-08 06:15:00,
2013-12-08 00:21:00,26.2,24.5,18.33,ENE,63,0.0,0.0,93,0.00,,SKC,0.00,VWS V14.01,2013-12-08 06:21:00,
2013-12-08 00:27:00,26.4,24.6,18.33,ENE,63,0.0,0.0,93,0.00,,SKC,0.00,VWS V14.01,2013-12-08 06:27:00,
2013-12-08 00:30:00,26.8,25.0,18.33,ENE,63,0.0,0.0,93,0.00,,SKC,0.00,VWS V14.01,2013-12-08 06:30:00,
2013-12-08 00:33:00,26.4,24.6,18.33,ENE,63,0.0,0.0,93,0.00,,SKC,0.00,VWS V14.01,2013-12-08 06:33:00,
2013-12-08 00:39:00,26.5,24.8,18.33,ENE,63,0.0,0.0,93,0.00,,SKC,0.00,VWS V14.01,2013-12-08 06:39:00,
2013-12-08 00:45:00,26.5,24.8,18.33,ENE,63,0.0,0.0,93,0.00,,SKC,0.00,VWS V14.01,2013-12-08 06:45:00,
2013-12-08 00:51:00,26.5,24.8,18.33,ENE,63,0.0,0.0,93,0.00,,SKC,0.00,VWS V14.01,2013-12-08 06:51:00,
2013-12-08 00:57:00,26.6,24.9,18.33,ENE,63,0.0,0.0,93,0.00,,SKC,0.00,VWS V14.01,2013-12-08 06:57:00,
2013-12-08 01:00:00,26.9,25.1,18.33,ENE,63,0.0,0.0,93,0.00,,SKC,0.00,VWS V14.01,2013-12-08 07:00:00,
2013-12-08 01:03:00,26.6,24.9,18.33,ENE,63,0.0,0.0,93,0.00,,SKC,0.00,VWS V14.01,2013-12-08 07:03:00,
2013-12-08 01:09:00,26.7,25.0,18.33,ENE,63,0.0,0.0,93,0.00,,SKC,0.00,VWS V14.01,2013-12-08 07:09:00,
2013-12-08 01:15:00,26.7,25.0,18.33,ENE,63,0.0,0.0,93,0.00,,SKC,0.00,VWS V14.01,2013-12-08 07:15:00,
2013-12-08 01:21:00,26.7,25.0,18.33,ENE,63,0.0,0.0,93,0.00,,SKC,0.00,VWS V14.01,2013-12-08 07:21:00,
2013-12-08 01:27:00,26.7,25.0,18.33,ENE,63,0.0,0.0,93,0.00,,SKC,0.00,VWS V14.01,2013-12-08 07:27:00,
2013-12-08 01:30:00,27.0,25.2,18.33,ENE,63,0.0,0.0,93,0.00,,SKC,0.00,VWS V14.01,2013-12-08 07:30:00,
2013-12-08 01:33:00,26.8,25.0,18.33,ENE,63,0.0,0.0,93,0.00,,SKC,0.00,VWS V14.01,2013-12-08 07:33:00,
2013-12-08 01:39:00,26.7,25.0,18.33,ENE,63,0.0,0.0,93,0.00,,SKC,0.00,VWS V14.01,2013-12-08 07:39:00,
2013-12-08 01:45:00,26.8,25.0,18.33,ENE,63,0.0,0.0,93,0.00,,SKC,0.00,VWS V14.01,2013-12-08 07:45:00,
2013-12-08 01:51:00,26.8,25.0,18.33,ENE,63,0.0,0.0,93,0.00,,SKC,0.00,VWS V14.01,2013-12-08 07:51:00,
2013-12-08 01:57:00,26.8,25.0,18.33,ENE,63,0.0,0.0,93,0.00,,SKC,0.00,VWS V14.01,2013-12-08 07:57:00,
2013-12-08 02:00:00,27.2,25.5,18.33,ENE,63,0.0,0.0,93,0.00,,SKC,0.00,VWS V14.01,2013-12-08 08:00:00,
2013-12-08 02:03:00,26.9,25.1,18.33,ENE,63,0.0,0.0,93,0.00,,SKC,0.00,VWS V14.01,2013-12-08 08:03:00,
2013-12-08 02:09:00,26.9,25.1,18.33,ENE,63,0.0,0.0,93,0.00,,SKC,0.00,VWS V14.01,2013-12-08 08:09:00,
2013-12-08 02:15:00,27.0,25.2,18.33,ENE,63,0.0,0.0,93,0.00,,SKC,0.00,VWS V14.01,2013-12-08 08:15:00,
2013-12-08 02:21:00,27.0,25.2,18.33,ENE,63,0.0,0.0,93,0.00,,SKC,0.00,VWS V14.01,2013-12-08 08:21:00,
2013-12-08 02:27:00,27.0,25.2,18.33,ENE,63,0.0,0.0,93,0.00,,SKC,0.00,VWS V14.01,2013-12-08 08:27:00,
2013-12-08 02:30:00,27.4,25.6,18.33,ENE,63,0.0,0.0,93,0.00,,SKC,0.00,VWS V14.01,2013-12-08 08:30:00,
2013-12-08 02:33:00,27.0,25.2,18.33,ENE,63,0.0,0.0,93,0.00,,SKC,0.00,VWS V14.01,2013-12-08 08:33:00,
2013-12-08 02:39:00,27.1,25.4,18.33,ENE,63,0.0,0.0,93,0.00,,SKC,0.00,VWS V14.01,2013-12-08 08:39:00,
2013-12-08 02:45:00,27.2,25.5,18.33,ENE,63,0.0,0.0,93,0.00,,SKC,0.00,VWS V14.01,2013-12-08 08:45:00,
2013-12-08 02:51:00,27.2,25.5,18.33,ENE,63,0.0,0.0,93,0.00,,SKC,0.00,VWS V14.01,2013-12-08 08:51:00,
2013-12-08 02:57:00,27.2,25.5,18.33,ENE,63,0.0,0.0,93,0.00,,SKC,0.00,VWS V14.01,2013-12-08 08:57:00,
2013-12-08 03:00:00,27.5,25.8,18.33,ENE,63,0.0,0.0,93,0.00,,SKC,0.00,VWS V14.01,2013-12-08 09:00:00,
2013-12-08 03:03:00,27.3,25.5,18.33,ENE,63,0.0,0.0,93,0.00,,SKC,0.00,VWS V14.01,2013-12-08 09:03:00,
2013-12-08 03:09:00,27.2,25.5,18.33,ENE,63,0.0,0.0,93,0.00,,SKC,0.00,VWS V14.01,2013-12-08 09:09:00,
2013-12-08 03:15:00,27.3,25.5,18.33,ENE,63,0.0,0.0,93,0.00,,SKC,0.00,VWS V14.01,2013-12-08 09:15:00,
2013-12-08 03:21:00,27.3,25.5,18.33,ENE,63,0.0,0.0,93,0.00,,SKC,0.00,VWS V14.01,2013-12-08 09:21:00,
2013-12-08 03:27:00,27.3,25.5,18.33,ENE,63,0.0,0.0,93,0.00,,SKC,0.00,VWS V14.01,2013-12-08 09:27:00,
2013-12-08 03:30:00,27.6,25.8,18.33,ENE,63,0.0,0.0,93,0.00,,SKC,0.00,VWS V14.01,2013-12-08 09:30:00,
2013-12-08 03:33:00,27.3,25.5,18.33,ENE,63,0.0,0.0,93,0.00,,SKC,0.00,VWS V14.01,2013-12-08 09:33:00,
2013-12-08 03:39:00,27.3,25.5,18.33,ENE,63,0.0,0.0,93,0.00,,SKC,0.00,VWS V14.01,2013-12-08 09:39:00,
2013-12-08 03:45:00,27.3,25.5,18.33,ENE,63,0.0,0.0,93,0.00,,SKC,0.00,VWS V14.01,2013-12-08 09:45:00,
2013-12-08 03:51:00,27.4,25.6,18.33,ENE,63,0.0,0.0,93,0.00,,SKC,0.00,VWS V14.01,2013-12-08 09:51:00,
2013-12-08 03:57:00,27.4,25.6,18.33,ENE,63,0.0,0.0,93,0.00,,SKC,0.00,VWS V14.01,2013-12-08 09:57:00,
2013-12-08 04:00:00,27.8,26.0,18.33,ENE,63,0.0,0.0,93,0.00,,SKC,0.00,VWS V14.01,2013-12-08 10:00:00,
2013-12-08 04:03:00,27.5,25.8,18.33,ENE,63,0.0,0.0,93,0.00,,SKC,0.00,VWS V14.01,2013-12-08 10:03:00,
2013-12-08 04:09:00,27.5,27.5,18.33,ENE,63,0.0,0.0,100,0.00,,SKC,0.00,VWS V14.01,2013-12-08 10:09:00,
2013-12-08 04:15:00,27.5,25.8,18.33,ENE,63,0.0,0.0,93,0.00,,SKC,0.00,VWS V14.01,2013-12-08 10:15:00,
2013-12-08 04:21:00,27.5,25.8,18.33,ENE,63,0.0,0.0,93,0.00,,SKC,0.00,VWS V14.01,2013-12-08 10:21:00,
2013-12-08 04:27:00,27.6,25.8,18.33,ENE,63,0.0,0.0,93,0.00,,SKC,0.00,VWS V14.01,2013-12-08 10:27:00,
2013-12-08 04:30:00,27.8,26.3,18.33,ENE,63,0.0,0.0,94,0.00,,SKC,0.00,VWS V14.01,2013-12-08 10:30:00,
2013-12-08 04:33:00,27.6,25.8,18.33,ENE,63,0.0,0.0,93,0.00,,SKC,0.00,VWS V14.01,2013-12-08 10:33:00,
2013-12-08 04:39:00,27.6,25.8,18.33,ENE,63,0.0,0.0,93,0.00,,SKC,0.00,VWS V14.01,2013-12-08 10:39:00,
2013-12-08 04:45:00,27.7,25.9,18.33,ENE,63,0.0,0.0,93,0.00,,SKC,0.00,VWS V14.01,2013-12-08 10:45:00,
2013-12-08 04:51:00,27.7,25.9,18.33,ENE,63,0.0,0.0,93,0.00,,SKC,0.00,VWS V14.01,2013-12-08 10:51:00,
2013-12-08 04:57:00,27.7,25.9,18.33,ENE,63,0.0,0.0,93,0.00,,SKC,0.00,VWS V14.01,2013-12-08 10:57:00,
2013-12-08 05:00:00,27.8,26.3,18.33,ENE,63,0.0,0.0,94,0.00,,SKC,0.00,VWS V14.01,2013-12-08 11:00:00,
2013-12-08 05:03:00,27.8,26.3,18.33,ENE,63,0.0,0.0,94,0.00,,SKC,0.00,VWS V14.01,2013-12-08 11:03:00,
2013-12-08 05:09:00,27.8,26.3,18.33,ENE,63,0.0,0.0,94,0.00,,SKC,0.00,VWS V14.01,2013-12-08 11:09:00,
2013-12-08 05:15:00,27.8,26.3,18.33,ENE,63,0.0,0.0,94,0.00,,SKC,0.00,VWS V14.01,2013-12-08 11:15:00,
2013-12-08 05:21:00,27.9,26.4,18.33,ENE,63,0.0,0.0,94,0.00,,SKC,0.00,VWS V14.01,2013-12-08 11:21:00,
2013-12-08 05:27:00,27.9,26.4,18.33,ENE,63,0.0,0.0,94,0.00,,SKC,0.00,VWS V14.01,2013-12-08 11:27:00,
2013-12-08 05:30:00,28.0,26.5,17.44,ENE,63,0.0,0.0,94,0.00,,SKC,0.00,VWS V14.01,2013-12-08 11:30:00,
2013-12-08 05:34:00,27.8,26.3,18.33,ENE,63,0.0,0.0,94,0.00,,SKC,0.00,VWS V14.01,2013-12-08 11:34:00,
2013-12-08 05:40:00,27.8,26.3,18.33,ENE,63,0.0,0.0,94,0.00,,SKC,0.00,VWS V14.01,2013-12-08 11:40:00,
2013-12-08 05:46:00,27.8,26.3,18.33,ENE,63,0.0,0.0,94,0.00,,SKC,0.00,VWS V14.01,2013-12-08 11:46:00,
2013-12-08 05:52:00,27.8,26.3,18.33,ENE,63,0.0,0.0,94,0.00,,SKC,0.00,VWS V14.01,2013-12-08 11:52:00,
2013-12-08 05:58:00,27.8,26.3,18.33,ENE,63,0.0,0.0,94,0.00,,SKC,0.00,VWS V14.01,2013-12-08 11:58:00,
2013-12-08 06:00:00,28.2,26.7,17.44,ENE,63,0.0,0.0,94,0.00,,SKC,0.00,VWS V14.01,2013-12-08 12:00:00,
2013-12-08 06:04:00,27.9,26.4,18.33,ENE,63,0.0,0.0,94,0.00,,SKC,0.00,VWS V14.01,2013-12-08 12:04:00,
2013-12-08 06:10:00,28.0,26.5,18.33,ENE,63,0.0,0.0,94,0.00,,SKC,0.00,VWS V14.01,2013-12-08 12:10:00,
2013-12-08 06:16:00,28.0,26.5,17.44,ENE,63,0.0,0.0,94,0.00,,SKC,0.00,VWS V14.01,2013-12-08 12:16:00,
2013-12-08 06:22:00,28.0,26.5,17.44,ENE,63,0.0,0.0,94,0.00,,SKC,0.00,VWS V14.01,2013-12-08 12:22:00,
2013-12-08 06:28:00,28.0,26.5,17.44,ENE,63,0.0,0.0,94,0.00,,SKC,0.00,VWS V14.01,2013-12-08 12:28:00,
2013-12-08 06:30:00,28.3,26.8,17.44,ENE,63,0.0,0.0,94,0.00,,SKC,0.00,VWS V14.01,2013-12-08 12:30:00,
2013-12-08 06:34:00,28.0,26.5,17.44,ENE,63,0.0,0.0,94,0.00,,SKC,0.00,VWS V14.01,2013-12-08 12:34:00,
2013-12-08 06:40:00,28.1,26.6,17.44,ENE,63,0.0,0.0,94,0.00,,SKC,0.00,VWS V14.01,2013-12-08 12:40:00,
2013-12-08 06:46:00,28.2,26.7,17.44,ENE,63,0.0,0.0,94,0.00,,SKC,0.00,VWS V14.01,2013-12-08 12:46:00,
2013-12-08 06:52:00,28.2,26.7,17.44,ENE,63,0.0,0.0,94,0.00,,SKC,0.00,VWS V14.01,2013-12-08 12:52:00,
2013-12-08 06:58:00,28.2,26.7,17.44,ENE,63,0.0,0.0,94,0.00,,SKC,0.00,VWS V14.01,2013-12-08 12:58:00,
2013-12-08 07:00:00,28.5,27.0,17.44,ENE,63,0.0,0.0,94,0.00,,SKC,0.00,VWS V14.01,2013-12-08 13:00:00,
2013-12-08 07:04:00,28.2,26.7,17.44,ENE,63,0.0,0.0,94,0.00,,SKC,0.00,VWS V14.01,2013-12-08 13:04:00,
2013-12-08 07:10:00,28.2,26.7,17.44,ENE,63,0.0,0.0,94,0.00,,SKC,0.00,VWS V14.01,2013-12-08 13:10:00,
2013-12-08 07:16:00,28.2,26.7,17.44,ENE,63,0.0,0.0,94,0.00,,SKC,0.00,VWS V14.01,2013-12-08 13:16:00,
2013-12-08 07:22:00,28.1,26.6,17.44,ENE,63,0.0,0.0,94,0.00,,SKC,0.00,VWS V14.01,2013-12-08 13:22:00,
2013-12-08 07:28:00,28.3,26.8,17.44,ENE,63,0.0,0.0,94,0.00,,SKC,0.00,VWS V14.01,2013-12-08 13:28:00,
2013-12-08 07:30:00,28.8,27.3,17.44,ENE,63,0.0,0.0,94,0.00,,SKC,0.00,VWS V14.01,2013-12-08 13:30:00,
2013-12-08 07:34:00,28.3,26.8,17.44,ENE,63,0.0,0.0,94,0.00,,SKC,0.00,VWS V14.01,2013-12-08 13:34:00,
2013-12-08 07:40:00,28.4,26.9,17.44,ENE,63,0.0,0.0,94,0.00,,SKC,0.00,VWS V14.01,2013-12-08 13:40:00,
2013-12-08 07:46:00,28.4,26.9,17.44,ENE,63,0.0,0.0,94,0.00,,SKC,0.00,VWS V14.01,2013-12-08 13:46:00,
2013-12-08 07:52:00,28.4,26.9,17.44,ENE,63,0.0,0.0,94,0.00,,SKC,0.00,VWS V14.01,2013-12-08 13:52:00,
2013-12-08 07:58:00,28.4,26.9,17.44,ENE,63,0.0,0.0,94,0.00,,SKC,0.00,VWS V14.01,2013-12-08 13:58:00,
2013-12-08 08:00:00,29.2,27.7,17.44,ENE,63,0.0,0.0,94,0.00,,SKC,0.00,VWS V14.01,2013-12-08 14:00:00,
2013-12-08 08:04:00,28.5,27.0,17.44,ENE,63,0.0,0.0,94,0.00,,SKC,0.00,VWS V14.01,2013-12-08 14:04:00,
2013-12-08 08:10:00,28.5,27.0,17.44,ENE,63,0.0,0.0,94,0.00,,SKC,0.00,VWS V14.01,2013-12-08 14:10:00,
2013-12-08 08:16:00,28.5,27.0,17.44,ENE,63,0.0,0.0,94,0.00,,SKC,0.00,VWS V14.01,2013-12-08 14:16:00,
2013-12-08 08:22:00,28.7,27.2,17.44,ENE,63,0.0,0.0,94,0.00,,SKC,0.00,VWS V14.01,2013-12-08 14:22:00,
2013-12-08 08:28:00,28.8,27.3,17.44,ENE,63,0.0,0.0,94,0.00,,SKC,0.00,VWS V14.01,2013-12-08 14:28:00,
2013-12-08 08:30:00,29.5,28.0,30.94,ENE,63,0.0,0.0,94,0.00,,SKC,0.00,VWS V14.01,2013-12-08 14:30:00,
2013-12-08 08:34:00,28.8,27.3,17.44,ENE,63,0.0,0.0,94,0.00,,SKC,0.00,VWS V14.01,2013-12-08 14:34:00,
2013-12-08 08:40:00,29.0,27.5,17.44,ENE,63,0.0,0.0,94,0.00,,SKC,0.00,VWS V14.01,2013-12-08 14:40:00,
2013-12-08 08:46:00,29.0,27.5,17.44,ENE,63,0.0,0.0,94,0.00,,SKC,0.00,VWS V14.01,2013-12-08 14:46:00,
2013-12-08 08:52:00,29.0,27.5,17.44,ENE,63,0.0,0.0,94,0.00,,SKC,0.00,VWS V14.01,2013-12-08 14:52:00,
2013-12-08 08:58:00,29.2,27.7,17.44,ENE,63,0.0,0.0,94,0.00,,SKC,0.00,VWS V14.01,2013-12-08 14:58:00,
2013-12-08 09:00:00,29.9,28.6,30.94,ENE,63,0.0,0.0,95,0.00,,SKC,0.00,VWS V14.01,2013-12-08 15:00:00,
2013-12-08 09:04:00,29.2,27.7,17.44,ENE,63,0.0,0.0,94,0.00,,SKC,0.00,VWS V14.01,2013-12-08 15:04:00,
2013-12-08 09:10:00,29.2,27.7,17.44,ENE,63,0.0,0.0,94,0.00,,SKC,0.00,VWS V14.01,2013-12-08 15:10:00,
2013-12-08 09:16:00,29.4,27.9,17.44,ENE,63,0.0,0.0,94,0.00,,SKC,0.00,VWS V14.01,2013-12-08 15:16:00,
2013-12-08 09:22:00,29.5,28.2,30.94,ENE,63,0.0,0.0,95,0.00,,SKC,0.00,VWS V14.01,2013-12-08 15:22:00,
2013-12-08 09:28:00,29.5,28.0,30.94,ENE,64,0.0,0.0,94,0.00,,SKC,0.00,VWS V14.01,2013-12-08 15:28:00,
2013-12-08 09:30:00,30.7,29.4,30.94,ENE,64,0.0,0.0,95,0.00,,SKC,0.00,VWS V14.01,2013-12-08 15:30:00,
2013-12-08 09:34:00,29.6,28.4,30.94,ENE,63,0.0,0.0,95,0.00,,SKC,0.00,VWS V14.01,2013-12-08 15:34:00,
2013-12-08 09:40:00,29.6,28.1,30.94,ENE,63,0.0,0.0,94,0.00,,SKC,0.00,VWS V14.01,2013-12-08 15:40:00,
2013-12-08 09:46:00,29.6,28.1,30.94,ENE,63,0.0,0.0,94,0.00,,SKC,0.00,VWS V14.01,2013-12-08 15:46:00,
2013-12-08 09:52:00,29.7,28.5,30.94,ENE,64,0.0,0.0,95,0.00,,SKC,0.00,VWS V14.01,2013-12-08 15:52:00,
2013-12-08 09:58:00,29.8,28.5,30.94,ENE,64,0.0,0.0,95,0.00,,SKC,0.00,VWS V14.01,2013-12-08 15:58:00,
2013-12-08 10:00:00,31.4,30.1,30.94,ENE,64,0.0,0.0,95,0.00,,SKC,0.00,VWS V14.01,2013-12-08 16:00:00,
2013-12-08 10:04:00,29.9,28.4,30.94,ENE,63,0.0,0.0,94,0.00,,SKC,0.00,VWS V14.01,2013-12-08 16:04:00,
2013-12-08 10:10:00,29.8,28.3,30.94,ENE,63,0.0,0.0,94,0.00,,SKC,0.00,VWS V14.01,2013-12-08 16:10:00,
2013-12-08 10:16:00,29.9,28.6,30.94,ENE,64,0.0,0.0,95,0.00,,SKC,0.00,VWS V14.01,2013-12-08 16:16:00,
2013-12-08 10:22:00,30.2,28.9,30.94,ENE,63,0.0,0.0,95,0.00,,SKC,0.00,VWS V14.01,2013-12-08 16:22:00,
2013-12-08 10:28:00,30.6,29.3,30.94,ENE,64,0.0,0.0,95,0.00,,SKC,0.00,VWS V14.01,2013-12-08 16:28:00,
2013-12-08 10:30:00,31.8,30.5,30.94,ENE,63,0.0,0.0,95,0.00,,SKC,0.00,VWS V14.01,2013-12-08 16:30:00,
2013-12-08 10:34:00,30.7,29.4,30.94,ENE,64,0.0,0.0,95,0.00,,SKC,0.00,VWS V14.01,2013-12-08 16:34:00,
2013-12-08 10:40:00,30.8,29.5,30.94,ENE,64,0.0,0.0,95,0.00,,SKC,0.00,VWS V14.01,2013-12-08 16:40:00,
2013-12-08 10:46:00,31.1,29.8,30.94,ENE,64,0.0,0.0,95,0.00,,SKC,0.00,VWS V14.01,2013-12-08 16:46:00,
2013-12-08 10:52:00,31.3,30.0,30.94,ENE,64,0.0,0.0,95,0.00,,SKC,0.00,VWS V14.01,2013-12-08 16:52:00,
2013-12-08 10:58:00,31.4,30.1,30.94,ENE,64,0.0,0.0,95,0.00,,SKC,0.00,VWS V14.01,2013-12-08 16:58:00,
2013-12-08 11:00:00,32.2,30.7,30.94,ENE,63,0.0,0.0,94,0.00,,SKC,0.00,VWS V14.01,2013-12-08 17:00:00,
2013-12-08 11:04:00,31.3,30.0,30.94,ENE,63,0.0,0.0,95,0.00,,SKC,0.00,VWS V14.01,2013-12-08 17:04:00,
2013-12-08 11:10:00,31.5,30.2,30.94,ENE,64,0.0,0.0,95,0.00,,SKC,0.00,VWS V14.01,2013-12-08 17:10:00,
2013-12-08 11:16:00,31.5,30.0,30.94,ENE,63,0.0,0.0,94,0.00,,SKC,0.00,VWS V14.01,2013-12-08 17:16:00,
2013-12-08 11:22:00,31.6,30.1,30.94,ENE,64,0.0,0.0,94,0.00,,SKC,0.00,VWS V14.01,2013-12-08 17:22:00,
2013-12-08 11:28:00,31.7,30.4,30.94,ENE,64,0.0,0.0,95,0.00,,SKC,0.00,VWS V14.01,2013-12-08 17:28:00,
2013-12-08 11:30:00,32.6,31.1,30.94,ENE,63,0.0,0.0,94,0.00,,SKC,0.00,VWS V14.01,2013-12-08 17:30:00,
2013-12-08 11:34:00,31.8,30.3,30.94,ENE,64,0.0,0.0,94,0.00,,SKC,0.00,VWS V14.01,2013-12-08 17:34:00,
2013-12-08 11:40:00,32.0,30.5,30.94,ENE,63,0.0,0.0,94,0.00,,SKC,0.00,VWS V14.01,2013-12-08 17:40:00,
2013-12-08 11:46:00,32.0,30.5,30.94,ENE,63,0.0,0.0,94,0.00,,SKC,0.00,VWS V14.01,2013-12-08 17:46:00,
2013-12-08 11:52:00,32.0,30.5,30.94,ENE,63,0.0,0.0,94,0.00,,SKC,0.00,VWS V14.01,2013-12-08 17:52:00,
2013-12-08 11:58:00,32.1,30.6,30.94,ENE,63,0.0,0.0,94,0.00,,SKC,0.00,VWS V14.01,2013-12-08 17:58:00,
2013-12-08 12:00:00,32.7,30.9,30.94,ENE,63,0.0,0.0,93,0.00,,SKC,0.00,VWS V14.01,2013-12-08 18:00:00,
2013-12-08 12:04:00,32.2,30.7,30.94,ENE,63,0.0,0.0,94,0.00,,SKC,0.00,VWS V14.01,2013-12-08 18:04:00,
2013-12-08 12:10:00,32.3,30.8,30.94,ENE,63,0.0,0.0,94,0.00,,SKC,0.00,VWS V14.01,2013-12-08 18:10:00,
2013-12-08 12:16:00,32.3,30.8,30.94,ENE,63,0.0,0.0,94,0.00,,SKC,0.00,VWS V14.01,2013-12-08 18:16:00,
2013-12-08 12:22:00,32.4,30.9,30.94,ENE,63,0.0,0.0,94,0.00,,SKC,0.00,VWS V14.01,2013-12-08 18:22:00,
2013-12-08 12:28:00,32.5,31.0,30.94,ENE,63,0.0,0.0,94,0.00,,SKC,0.00,VWS V14.01,2013-12-08 18:28:00,
2013-12-08 12:30:00,33.2,31.7,30.94,ENE,63,0.0,0.0,94,0.00,,SKC,0.00,VWS V14.01,2013-12-08 18:30:00,
2013-12-08 12:34:00,32.7,31.2,30.94,ENE,63,0.0,0.0,94,0.00,,SKC,0.00,VWS V14.01,2013-12-08 18:34:00,
2013-12-08 12:40:00,32.6,31.1,30.94,ENE,63,0.0,0.0,94,0.00,,SKC,0.00,VWS V14.01,2013-12-08 18:40:00,
2013-12-08 12:46:00,32.6,31.1,30.94,ENE,63,0.0,0.0,94,0.00,,SKC,0.00,VWS V14.01,2013-12-08 18:46:00,
2013-12-08 12:52:00,32.7,31.2,30.94,ENE,63,0.0,0.0,94,0.00,,SKC,0.00,VWS V14.01,2013-12-08 18:52:00,
2013-12-08 12:58:00,32.8,31.0,30.94,ENE,63,0.0,0.0,93,0.00,,SKC,0.00,VWS V14.01,2013-12-08 18:58:00,
2013-12-08 13:00:00,33.3,31.8,30.94,ESE,123,0.0,0.0,94,0.00,,SKC,0.00,VWS V14.01,2013-12-08 19:00:00,
2013-12-08 13:04:00,32.7,30.9,30.94,ENE,63,0.0,0.0,93,0.00,,SKC,0.00,VWS V14.01,2013-12-08 19:04:00,
2013-12-08 13:10:00,32.8,31.0,30.94,ENE,63,0.0,0.0,93,0.00,,SKC,0.00,VWS V14.01,2013-12-08 19:10:00,
2013-12-08 13:16:00,32.9,31.4,30.94,ENE,63,0.0,0.0,94,0.00,,SKC,0.00,VWS V14.01,2013-12-08 19:16:00,
2013-12-08 13:22:00,33.0,31.5,30.94,ENE,63,0.0,0.0,94,0.00,,SKC,0.00,VWS V14.01,2013-12-08 19:22:00,
2013-12-08 13:28:00,33.1,31.6,30.94,ENE,63,0.0,0.0,94,0.00,,SKC,0.00,VWS V14.01,2013-12-08 19:28:00,
2013-12-08 13:30:00,33.2,31.7,30.94,South,170,0.0,0.0,94,0.00,,SKC,0.00,VWS V14.01,2013-12-08 19:30:00,
2013-12-08 13:34:00,33.3,31.8,30.94,ENE,66,0.0,0.0,94,0.00,,SKC,0.00,VWS V14.01,2013-12-08 19:34:00,
2013-12-08 13:41:00,33.3,31.8,30.94,ENE,66,0.0,0.0,94,0.00,,SKC,0.00,VWS V14.01,2013-12-08 19:41:00,
2013-12-08 13:47:00,33.4,31.9,30.94,ENE,66,0.0,0.0,94,0.00,,SKC,0.00,VWS V14.01,2013-12-08 19:47:00,
2013-12-08 13:53:00,33.4,31.6,30.94,ESE,111,0.0,0.0,93,0.00,,SKC,0.00,VWS V14.01,2013-12-08 19:53:00,
2013-12-08 13:59:00,33.3,31.8,30.94,ESE,111,0.0,0.0,94,0.00,,SKC,0.00,VWS V14.01,2013-12-08 19:59:00,
2013-12-08 14:00:00,33.4,31.9,30.94,South,183,0.0,0.0,94,0.00,,SKC,0.00,VWS V14.01,2013-12-08 20:00:00,
2013-12-08 14:05:00,33.3,31.5,30.94,South,170,0.0,0.0,93,0.00,,SKC,0.00,VWS V14.01,2013-12-08 20:05:00,
2013-12-08 14:11:00,33.2,31.7,30.94,South,170,0.0,0.0,94,0.00,,SKC,0.00,VWS V14.01,2013-12-08 20:11:00,
2013-12-08 14:17:00,33.3,31.8,30.94,South,170,0.0,0.0,94,0.00,,SKC,0.00,VWS V14.01,2013-12-08 20:17:00,
2013-12-08 14:23:00,33.2,31.7,30.94,South,170,0.0,0.0,94,0.00,,SKC,0.00,VWS V14.01,2013-12-08 20:23:00,
2013-12-08 14:29:00,33.2,31.7,30.94,South,170,0.0,0.0,94,0.00,,SKC,0.00,VWS V14.01,2013-12-08 20:29:00,
2013-12-08 14:30:00,33.6,32.1,30.94,South,183,0.0,0.0,94,0.02,,SKC,0.02,VWS V14.01,2013-12-08 20:30:00,
2013-12-08 14:35:00,33.2,31.7,30.94,South,170,0.0,0.0,94,0.00,,SKC,0.00,VWS V14.01,2013-12-08 20:35:00,
2013-12-08 14:41:00,33.3,31.8,30.94,South,183,0.0,0.0,94,0.00,,SKC,0.00,VWS V14.01,2013-12-08 20:41:00,
2013-12-08 14:47:00,33.2,31.7,30.94,South,183,0.0,0.0,94,0.00,,SKC,0.00,VWS V14.01,2013-12-08 20:47:00,
2013-12-08 14:53:00,33.3,31.8,30.94,South,183,0.0,0.0,94,0.00,,SKC,0.00,VWS V14.01,2013-12-08 20:53:00,
2013-12-08 14:59:00,33.3,31.8,30.94,South,183,0.0,0.0,94,0.00,,SKC,0.00,VWS V14.01,2013-12-08 20:59:00,
2013-12-08 15:00:00,33.8,32.3,30.94,South,183,0.0,0.0,94,0.03,,SKC,0.03,VWS V14.01,2013-12-08 21:00:00,
2013-12-08 15:05:00,33.4,31.9,30.94,South,183,0.0,0.0,94,0.00,,SKC,0.00,VWS V14.01,2013-12-08 21:05:00,
2013-12-08 15:11:00,33.4,31.9,30.94,South,183,0.0,0.0,94,0.00,,SKC,0.00,VWS V14.01,2013-12-08 21:11:00,
2013-12-08 15:17:00,33.4,31.9,30.94,South,183,0.0,0.0,94,0.00,,SKC,0.00,VWS V14.01,2013-12-08 21:17:00,
2013-12-08 15:23:00,33.5,32.0,30.94,South,183,0.0,0.0,94,0.02,,SKC,0.02,VWS V14.01,2013-12-08 21:23:00,
2013-12-08 15:29:00,33.6,32.1,30.94,South,183,0.0,0.0,94,0.02,,SKC,0.02,VWS V14.01,2013-12-08 21:29:00,
2013-12-08 15:30:00,33.9,32.4,30.94,South,183,0.0,0.0,94,0.03,,SKC,0.03,VWS V14.01,2013-12-08 21:30:00,
2013-12-08 15:35:00,33.7,32.2,30.94,South,183,0.0,0.0,94,0.02,,SKC,0.02,VWS V14.01,2013-12-08 21:35:00,
2013-12-08 15:41:00,33.7,32.2,30.94,South,183,0.0,0.0,94,0.02,,SKC,0.02,VWS V14.01,2013-12-08 21:41:00,
2013-12-08 15:47:00,33.6,32.1,30.94,South,183,0.0,0.0,94,0.02,,SKC,0.02,VWS V14.01,2013-12-08 21:47:00,
2013-12-08 15:53:00,33.7,32.2,30.94,South,183,0.0,0.0,94,0.02,,SKC,0.02,VWS V14.01,2013-12-08 21:53:00,
2013-12-08 15:59:00,33.8,32.3,30.94,South,183,0.0,0.0,94,0.03,,SKC,0.03,VWS V14.01,2013-12-08 21:59:00,
2013-12-08 16:00:00,33.9,32.4,30.94,South,183,0.0,0.0,94,0.01,,SKC,0.03,VWS V14.01,2013-12-08 22:00:00,
2013-12-08 16:05:00,33.8,32.3,30.94,South,183,0.0,0.0,94,0.03,,SKC,0.03,VWS V14.01,2013-12-08 22:05:00,
2013-12-08 16:11:00,33.8,32.3,30.94,South,183,0.0,0.0,94,0.03,,SKC,0.03,VWS V14.01,2013-12-08 22:11:00,
2013-12-08 16:17:00,33.9,32.4,30.94,South,183,0.0,0.0,94,0.03,,SKC,0.03,VWS V14.01,2013-12-08 22:17:00,
2013-12-08 16:23:00,33.9,32.4,30.94,South,183,0.0,0.0,94,0.03,,SKC,0.03,VWS V14.01,2013-12-08 22:23:00,
2013-12-08 16:29:00,33.9,32.4,30.94,South,183,0.0,0.0,94,0.03,,SKC,0.03,VWS V14.01,2013-12-08 22:29:00,
2013-12-08 16:30:00,34.1,32.6,30.94,South,183,0.0,0.0,94,0.00,,SKC,0.03,VWS V14.01,2013-12-08 22:30:00,
2013-12-08 16:35:00,33.9,32.4,30.94,South,183,0.0,0.0,94,0.01,,SKC,0.03,VWS V14.01,2013-12-08 22:35:00,
2013-12-08 16:41:00,33.9,32.4,30.94,South,183,0.0,0.0,94,0.01,,SKC,0.03,VWS V14.01,2013-12-08 22:41:00,
2013-12-08 16:47:00,33.9,32.4,30.94,South,183,0.0,0.0,94,0.01,,SKC,0.03,VWS V14.01,2013-12-08 22:47:00,
2013-12-08 16:53:00,33.9,32.4,30.94,South,183,0.0,0.0,94,0.01,,SKC,0.03,VWS V14.01,2013-12-08 22:53:00,
2013-12-08 16:59:00,33.8,32.3,30.94,South,183,0.0,0.0,94,0.01,,SKC,0.03,VWS V14.01,2013-12-08 22:59:00,
2013-12-08 17:00:00,33.9,32.4,30.94,WSW,252,0.0,1.0,94,0.01,,SKC,0.04,VWS V14.01,2013-12-08 23:00:00,
2013-12-08 17:05:00,33.9,32.4,30.94,South,183,0.0,0.0,94,0.00,,SKC,0.03,VWS V14.01,2013-12-08 23:05:00,
2013-12-08 17:11:00,34.1,32.6,30.94,South,183,0.0,0.0,94,0.00,,SKC,0.03,VWS V14.01,2013-12-08 23:11:00,
2013-12-08 17:17:00,34.1,32.6,30.94,South,183,0.0,0.0,94,0.00,,SKC,0.03,VWS V14.01,2013-12-08 23:17:00,
2013-12-08 17:23:00,34.1,32.6,30.94,South,183,0.0,0.0,94,0.00,,SKC,0.03,VWS V14.01,2013-12-08 23:23:00,
2013-12-08 17:29:00,34.1,32.6,30.94,South,183,0.0,0.0,94,0.00,,SKC,0.03,VWS V14.01,2013-12-08 23:29:00,
2013-12-08 17:30:00,33.9,32.4,30.94,SSW,209,0.0,1.0,94,0.01,,SKC,0.04,VWS V14.01,2013-12-08 23:30:00,
2013-12-08 17:35:00,34.1,32.6,30.94,SW,233,0.0,0.0,94,0.00,,SKC,0.03,VWS V14.01,2013-12-08 23:35:00,
2013-12-08 17:41:00,33.9,32.4,30.94,WSW,252,0.0,1.0,94,0.00,,SKC,0.03,VWS V14.01,2013-12-08 23:41:00,
2013-12-08 17:47:00,33.9,32.4,30.94,WSW,252,0.0,1.0,94,0.00,,SKC,0.03,VWS V14.01,2013-12-08 23:47:00,
2013-12-08 17:53:00,33.9,32.4,30.94,WSW,252,0.0,1.0,94,0.00,,SKC,0.03,VWS V14.01,2013-12-08 23:53:00,
2013-12-08 17:59:00,33.9,32.4,30.94,WSW,252,0.0,1.0,94,0.00,,SKC,0.03,VWS V14.01,2013-12-08 23:59:00,
2013-12-08 18:00:00,34.0,32.5,30.94,SW,215,2.0,4.0,94,0.01,,SKC,0.04,VWS V14.01,2013-12-09 00:00:00,
2013-12-08 18:05:00,33.9,32.4,30.94,WSW,252,0.0,0.0,94,0.01,,SKC,0.04,VWS V14.01,2013-12-09 00:05:00,
2013-12-08 18:11:00,33.9,32.4,30.94,WSW,252,0.0,1.0,94,0.01,,SKC,0.04,VWS V14.01,2013-12-09 00:11:00,
2013-12-08 18:17:00,33.9,32.4,30.94,WSW,252,0.0,1.0,94,0.01,,SKC,0.04,VWS V14.01,2013-12-09 00:17:00,
2013-12-08 18:23:00,33.9,32.4,30.94,WSW,252,0.0,1.0,94,0.01,,SKC,0.04,VWS V14.01,2013-12-09 00:23:00,
2013-12-08 18:29:00,33.9,32.4,30.94,WSW,252,0.0,1.0,94,0.01,,SKC,0.04,VWS V14.01,2013-12-09 00:29:00,
2013-12-08 18:30:00,33.9,32.4,30.94,WSW,252,0.0,3.0,94,0.01,,SKC,0.05,VWS V14.01,2013-12-09 00:30:00,
2013-12-08 18:35:00,33.9,32.4,30.94,SW,219,0.0,0.0,94,0.01,,SKC,0.04,VWS V14.01,2013-12-09 00:35:00,
2013-12-08 18:41:00,33.9,32.4,30.94,SW,219,0.0,1.0,94,0.01,,SKC,0.04,VWS V14.01,2013-12-09 00:41:00,
2013-12-08 18:47:00,33.9,32.4,30.94,SW,222,1.0,3.0,94,0.01,,SKC,0.04,VWS V14.01,2013-12-09 00:47:00,
2013-12-08 18:53:00,34.0,32.5,30.94,SW,222,0.0,3.0,94,0.01,,SKC,0.04,VWS V14.01,2013-12-09 00:53:00,
2013-12-08 18:59:00,34.0,32.5,30.94,SW,215,1.0,4.0,94,0.01,,SKC,0.04,VWS V14.01,2013-12-09 00:59:00,
2013-12-08 19:00:00,33.8,32.3,30.94,WSW,252,0.0,1.0,94,0.01,,SKC,0.05,VWS V14.01,2013-12-09 01:00:00,
2013-12-08 19:05:00,34.0,32.5,30.94,SW,215,0.0,2.0,94,0.00,,SKC,0.04,VWS V14.01,2013-12-09 01:05:00,
2013-12-08 19:11:00,34.0,32.5,30.94,WSW,252,0.0,3.0,94,0.00,,SKC,0.04,VWS V14.01,2013-12-09 01:11:00,
2013-12-08 19:17:00,34.0,32.5,30.94,WSW,252,0.0,3.0,94,0.00,,SKC,0.04,VWS V14.01,2013-12-09 01:17:00,
2013-12-08 19:23:00,33.9,32.4,30.94,WSW,252,1.0,3.0,94,0.00,,SKC,0.04,VWS V14.01,2013-12-09 01:23:00,
2013-12-08 19:29:00,33.9,32.4,30.94,WSW,252,0.0,3.0,94,0.01,,SKC,0.05,VWS V14.01,2013-12-09 01:29:00,
2013-12-08 19:30:00,33.7,32.2,30.94,WSW,252,1.0,4.0,94,0.01,,SKC,0.05,VWS V14.01,2013-12-09 01:30:00,
2013-12-08 19:35:00,33.9,32.4,30.94,WSW,252,0.0,0.0,94,0.01,,SKC,0.05,VWS V14.01,2013-12-09 01:35:00,
2013-12-08 19:41:00,33.9,32.4,30.94,WSW,252,0.0,0.0,94,0.01,,SKC,0.05,VWS V14.01,2013-12-09 01:41:00,
2013-12-08 19:47:00,33.9,32.4,30.94,WSW,252,0.0,1.0,94,0.01,,SKC,0.05,VWS V14.01,2013-12-09 01:47:00,
2013-12-08 19:53:00,33.9,32.4,30.94,WSW,252,0.0,1.0,94,0.01,,SKC,0.05,VWS V14.01,2013-12-09 01:53:00,
2013-12-08 19:59:00,33.9,32.4,30.94,WSW,252,0.0,1.0,94,0.01,,SKC,0.05,VWS V14.01,2013-12-09 01:59:00,
2013-12-08 20:00:00,33.7,32.2,30.94,WSW,252,0.0,3.0,94,0.01,,SKC,0.06,VWS V14.01,2013-12-09 02:00:00,
2013-12-08 20:05:00,33.8,32.3,30.94,WSW,252,1.0,2.0,94,0.01,,SKC,0.05,VWS V14.01,2013-12-09 02:05:00,
2013-12-08 20:11:00,33.8,32.3,30.94,WSW,252,1.0,3.0,94,0.01,,SKC,0.05,VWS V14.01,2013-12-09 02:11:00,
2013-12-08 20:17:00,33.8,32.3,30.94,WSW,252,1.0,3.0,94,0.01,,SKC,0.05,VWS V14.01,2013-12-09 02:17:00,
2013-12-08 20:23:00,33.8,32.3,30.94,WSW,252,2.0,3.0,94,0.01,,SKC,0.05,VWS V14.01,2013-12-09 02:23:00,
2013-12-08 20:29:00,33.7,32.2,30.94,WSW,252,2.0,4.0,94,0.01,,SKC,0.05,VWS V14.01,2013-12-09 02:29:00,
2013-12-08 20:30:00,33.6,32.1,30.94,WSW,252,0.0,2.0,94,0.01,,SKC,0.06,VWS V14.01,2013-12-09 02:30:00,
2013-12-08 20:35:00,33.7,32.2,30.94,WSW,252,1.0,2.0,94,0.00,,SKC,0.05,VWS V14.01,2013-12-09 02:35:00,
2013-12-08 20:41:00,33.7,32.2,30.94,WSW,252,0.0,3.0,94,0.00,,SKC,0.05,VWS V14.01,2013-12-09 02:41:00,
2013-12-08 20:47:00,33.7,32.2,30.94,WSW,252,0.0,3.0,94,0.00,,SKC,0.05,VWS V14.01,2013-12-09 02:47:00,
2013-12-08 20:53:00,33.7,32.2,30.94,WSW,252,0.0,3.0,94,0.01,,SKC,0.06,VWS V14.01,2013-12-09 02:53:00,
2013-12-08 20:59:00,33.7,32.2,30.94,WSW,252,0.0,3.0,94,0.01,,SKC,0.06,VWS V14.01,2013-12-09 02:59:00,
2013-12-08 21:00:00,33.6,32.3,30.94,WSW,252,0.0,0.0,95,0.01,,SKC,0.06,VWS V14.01,2013-12-09 03:00:00,
2013-12-08 21:05:00,33.7,32.2,30.94,WSW,252,0.0,0.0,94,0.01,,SKC,0.06,VWS V14.01,2013-12-09 03:05:00,
2013-12-08 21:11:00,33.6,32.1,30.94,WSW,252,0.0,1.0,94,0.01,,SKC,0.06,VWS V14.01,2013-12-09 03:11:00,
2013-12-08 21:17:00,33.6,32.1,30.94,WSW,252,0.0,2.0,94,0.01,,SKC,0.06,VWS V14.01,2013-12-09 03:17:00,
2013-12-08 21:23:00,33.6,32.1,30.94,WSW,252,0.0,2.0,94,0.01,,SKC,0.06,VWS V14.01,2013-12-09 03:23:00,
2013-12-08 21:29:00,33.6,32.1,30.94,WSW,252,0.0,2.0,94,0.01,,SKC,0.06,VWS V14.01,2013-12-09 03:29:00,
2013-12-08 21:30:00,33.4,31.9,30.94,SSE,158,1.0,4.0,94,0.01,,SKC,0.07,VWS V14.01,2013-12-09 03:30:00,
2013-12-08 21:35:00,33.6,32.3,30.94,WSW,252,0.0,0.0,95,0.01,,SKC,0.06,VWS V14.01,2013-12-09 03:35:00,
2013-12-08 21:41:00,33.6,32.1,30.94,WSW,252,0.0,0.0,94,0.01,,SKC,0.06,VWS V14.01,2013-12-09 03:41:00,
2013-12-08 21:47:00,33.6,32.3,30.94,WSW,252,0.0,0.0,95,0.01,,SKC,0.06,VWS V14.01,2013-12-09 03:47:00,
2013-12-08 21:54:00,33.6,32.3,30.94,WSW,252,0.0,0.0,95,0.01,,SKC,0.06,VWS V14.01,2013-12-09 03:54:00,
2013-12-08 22:00:00,33.6,32.3,30.94,WSW,252,0.0,0.0,95,0.01,,SKC,0.06,VWS V14.01,2013-12-09 04:00:00,
2013-12-08 22:06:00,33.6,32.3,30.94,WSW,252,0.0,0.0,95,0.01,,SKC,0.07,VWS V14.01,2013-12-09 04:06:00,
2013-12-08 22:12:00,33.6,32.1,30.94,WSW,252,2.0,2.0,94,0.01,,SKC,0.07,VWS V14.01,2013-12-09 04:12:00,
2013-12-08 22:18:00,33.7,32.4,30.94,South,181,0.0,4.0,95,0.01,,SKC,0.07,VWS V14.01,2013-12-09 04:18:00,
2013-12-08 22:24:00,33.5,32.2,30.94,SSE,158,0.0,4.0,95,0.01,,SKC,0.07,VWS V14.01,2013-12-09 04:24:00,
2013-12-08 22:30:00,33.4,31.9,30.94,SSE,157,2.0,4.0,94,0.01,,SKC,0.07,VWS V14.01,2013-12-09 04:30:00,
2013-12-08 22:36:00,33.4,31.9,30.94,SSE,158,0.0,3.0,94,0.01,,SKC,0.07,VWS V14.01,2013-12-09 04:36:00,
2013-12-08 22:42:00,33.4,31.9,30.94,SSE,157,0.0,3.0,94,0.01,,SKC,0.07,VWS V14.01,2013-12-09 04:42:00,
2013-12-08 22:48:00,33.3,32.0,30.94,SSE,158,1.0,3.0,95,0.01,,SKC,0.07,VWS V14.01,2013-12-09 04:48:00,
2013-12-08 22:54:00,33.3,32.0,30.94,SSE,157,0.0,3.0,95,0.01,,SKC,0.07,VWS V14.01,2013-12-09 04:54:00,
2013-12-08 23:00:00,33.4,32.1,30.94,SSE,158,0.0,3.0,95,0.01,,SKC,0.07,VWS V14.01,2013-12-09 05:00:00,
2013-12-08 23:01:00,33.3,32.0,30.94,SSE,158,0.0,3.0,95,0.01,,SKC,0.07,VWS V14.01,2013-12-09 05:01:00,
2013-12-08 23:03:00,33.3,32.0,30.94,SSE,158,0.0,0.0,95,0.01,,SKC,0.07,VWS V14.01,2013-12-09 05:03:00,
2013-12-08 23:06:00,33.3,32.0,30.94,SSE,158,0.0,1.0,95,0.01,,SKC,0.07,VWS V14.01,2013-12-09 05:06:00,
2013-12-08 23:12:00,33.3,32.0,30.94,SSE,158,0.0,1.0,95,0.01,,SKC,0.07,VWS V14.01,2013-12-09 05:12:00,
2013-12-08 23:15:00,33.3,32.0,30.94,SSE,158,0.0,1.0,95,0.01,,SKC,0.07,VWS V14.01,2013-12-09 05:15:00,
2013-12-08 23:21:00,33.3,32.0,30.94,SSE,158,0.0,1.0,95,0.01,,SKC,0.07,VWS V14.01,2013-12-09 05:21:00,
2013-12-08 23:27:00,33.4,32.1,30.94,SSE,157,0.0,2.0,95,0.01,,SKC,0.07,VWS V14.01,2013-12-09 05:27:00,
2013-12-08 23:30:00,33.1,31.8,18.32,NE,34,0.0,3.0,95,0.01,,SKC,0.00,VWS V14.01,2013-12-09 05:30:00,
2013-12-08 23:33:00,33.4,32.1,18.32,SSE,154,0.0,2.0,95,0.00,,SKC,0.07,VWS V14.01,2013-12-09 05:33:00,
2013-12-08 23:39:00,33.3,32.0,18.32,SSE,154,0.0,2.0,95,0.00,,SKC,0.07,VWS V14.01,2013-12-09 05:39:00,
2013-12-08 23:45:00,33.3,32.0,18.32,SSE,154,0.0,2.0,95,0.00,,SKC,0.07,VWS V14.01,2013-12-09 05:45:00,
2013-12-08 23:48:00,33.3,32.0,18.32,SSE,154,0.0,2.0,95,0.01,,SKC,0.08,VWS V14.01,2013-12-09 05:48:00,
2013-12-08 23:54:00,33.2,31.9,18.32,SSE,155,0.0,3.0,95,0.01,,SKC,0.08,VWS V14.01,2013-12-09 05:54:00,